Bloomingville, Ohio
Current Conditions -  °F | °C
As of 8:13 AM on Thursday 23 Oct 2014 (Local Time) from KPCW Reporting Station
Broken Clouds Broken Clouds  
Wind Chill: 44°   Ceiling: 1100
Heat Index: 46°   Visibility: 10mi
Dew Point: 45°   Wind: 6mph
Humidity: 93%   Direction: 360°N
Pressure: 30.21"   Gusts: NA
Location:  41.4028°N, 82.7181°W
Report Text: KPCW 231213Z AUTO 36005KT 10SM BKN011 08/07 A3021 RMK AO2 BKN V SCT $
Loading
Personal Weather Stations






























Interactive Weather Map
Tropical Storm Tracking
New forecast layout! Learn more

10-Day Weather Forecast

Advertisements
Track Severe Weather on mobile